FNHU/NOV METAR and TAF weather

Enter ICAO airport designator
Station Type Date Time Source
FNHU METAR 2021/02/26 06:00 UTC NOAA

FNHU 260600Z 27004KT 9999 FEW010 BKN060 16/14 Q1021


Station Type Date Time Source
FNHU Decoded METAR 2021/02/26 06:00 UTC NOAA

Huambo Nova Lisboa , Angola (FNHU) 12-48S 015-45E 1701M
Feb 26, 2021 - 01:00 AM EST / 2021.02.26 0600 UTC
Wind: from the W (270 degrees) at 5 MPH (4 KT):0
Visibility: greater than 7 mile(s):0
Sky conditions: mostly cloudy
Temperature: 60 F (16 C)
Dew Point: 57 F (14 C)
Relative Humidity: 87%
Pressure (altimeter): 30.15 in. Hg (1021 hPa)
ob: FNHU 260600Z 27004KT 9999 FEW010 BKN060 16/14 Q1021
cycle: 6

Station Type Date Time Source
FNHU TAF 2021/02/28 12:55 UTC NOAA

TAF FNHU 281055Z 2812/2824 18004KT 9999 FEW020 SCT035
BECMG 2814/2816 BKN025
BECMG 2819/2821 VRB03KT
TEMPO 2822/2824 9000

Example: see airport list